sensor_id;sensor_type;location;lat;lon;timestamp;temperature;humidity
13684;DHT22;6914;53.552;9.908;2023-01-28T00:00:55;1.40;99.90
13684;DHT22;6914;53.552;9.908;2023-01-28T00:03:22;1.60;99.90
13684;DHT22;6914;53.552;9.908;2023-01-28T00:05:51;1.50;99.90
13684;DHT22;6914;53.552;9.908;2023-01-28T00:08:18;1.40;99.90
13684;DHT22;6914;53.552;9.908;2023-01-28T00:10:46;1.50;99.90
13684;DHT22;6914;53.552;9.908;2023-01-28T00:13:14;1.50;99.90
13684;DHT22;6914;53.552;9.908;2023-01-28T00:15:41;1.50;99.90
13684;DHT22;6914;53.552;9.908;2023-01-28T00:18:10;1.70;99.90
13684;DHT22;6914;53.552;9.908;2023-01-28T00:20:37;1.30;99.90
13684;DHT22;6914;53.552;9.908;2023-01-28T00:23:07;1.50;99.90
13684;DHT22;6914;53.552;9.908;2023-01-28T00:25:34;1.50;99.90
13684;DHT22;6914;53.552;9.908;2023-01-28T00:28:01;1.40;99.90
13684;DHT22;6914;53.552;9.908;2023-01-28T00:30:28;1.60;99.90
13684;DHT22;6914;53.552;9.908;2023-01-28T00:32:54;1.20;99.90
13684;DHT22;6914;53.552;9.908;2023-01-28T00:35:23;1.60;99.90
13684;DHT22;6914;53.552;9.908;2023-01-28T00:37:50;1.50;99.90
13684;DHT22;6914;53.552;9.908;2023-01-28T00:40:17;1.40;99.90
13684;DHT22;6914;53.552;9.908;2023-01-28T00:42:43;2.00;99.90
13684;DHT22;6914;53.552;9.908;2023-01-28T00:45:10;0.70;99.90
13684;DHT22;6914;53.552;9.908;2023-01-28T00:47:37;1.40;99.90
13684;DHT22;6914;53.552;9.908;2023-01-28T00:50:05;1.40;99.90
13684;DHT22;6914;53.552;9.908;2023-01-28T00:52:33;1.50;99.90
13684;DHT22;6914;53.552;9.908;2023-01-28T00:55:03;1.40;99.90
13684;DHT22;6914;53.552;9.908;2023-01-28T00:57:30;1.90;99.90
13684;DHT22;6914;53.552;9.908;2023-01-28T01:00:05;1.40;99.90
13684;DHT22;6914;53.552;9.908;2023-01-28T01:02:32;1.70;99.90
13684;DHT22;6914;53.552;9.908;2023-01-28T01:04:59;1.60;99.90
13684;DHT22;6914;53.552;9.908;2023-01-28T01:07:29;1.40;99.90
13684;DHT22;6914;53.552;9.908;2023-01-28T01:10:09;1.40;99.90
13684;DHT22;6914;53.552;9.908;2023-01-28T01:12:37;1.40;99.90
13684;DHT22;6914;53.552;9.908;2023-01-28T01:15:06;1.50;99.90
13684;DHT22;6914;53.552;9.908;2023-01-28T01:17:34;1.40;99.90
13684;DHT22;6914;53.552;9.908;2023-01-28T01:20:02;1.30;99.90
13684;DHT22;6914;53.552;9.908;2023-01-28T01:22:32;1.40;99.90
13684;DHT22;6914;53.552;9.908;2023-01-28T01:25:02;1.40;99.90
13684;DHT22;6914;53.552;9.908;2023-01-28T01:27:31;1.40;99.90
13684;DHT22;6914;53.552;9.908;2023-01-28T01:30:02;2.20;99.90
13684;DHT22;6914;53.552;9.908;2023-01-28T01:32:29;2.50;99.90
13684;DHT22;6914;53.552;9.908;2023-01-28T01:34:56;1.30;99.90
13684;DHT22;6914;53.552;9.908;2023-01-28T01:37:23;1.30;99.90
13684;DHT22;6914;53.552;9.908;2023-01-28T01:39:50;1.50;99.90
13684;DHT22;6914;53.552;9.908;2023-01-28T01:42:17;1.30;99.90
13684;DHT22;6914;53.552;9.908;2023-01-28T01:45:10;1.10;99.90
13684;DHT22;6914;53.552;9.908;2023-01-28T01:47:43;1.30;99.90
13684;DHT22;6914;53.552;9.908;2023-01-28T01:50:19;0.70;99.90
13684;DHT22;6914;53.552;9.908;2023-01-28T01:52:55;1.20;99.90
13684;DHT22;6914;53.552;9.908;2023-01-28T01:55:32;1.20;99.90
13684;DHT22;6914;53.552;9.908;2023-01-28T01:58:05;0.10;99.90
13684;DHT22;6914;53.552;9.908;2023-01-28T02:00:37;1.10;99.90
13684;DHT22;6914;53.552;9.908;2023-01-28T02:03:05;1.20;99.90
13684;DHT22;6914;53.552;9.908;2023-01-28T02:05:32;1.20;99.90
13684;DHT22;6914;53.552;9.908;2023-01-28T02:08:02;1.10;99.90
13684;DHT22;6914;53.552;9.908;2023-01-28T02:10:44;2.80;99.90
13684;DHT22;6914;53.552;9.908;2023-01-28T02:13:11;1.00;99.90
13684;DHT22;6914;53.552;9.908;2023-01-28T02:15:40;1.00;99.90
13684;DHT22;6914;53.552;9.908;2023-01-28T02:18:07;1.10;99.90
13684;DHT22;6914;53.552;9.908;2023-01-28T02:20:50;1.00;99.90
13684;DHT22;6914;53.552;9.908;2023-01-28T02:23:35;1.00;99.90
13684;DHT22;6914;53.552;9.908;2023-01-28T02:26:22;1.10;99.90
13684;DHT22;6914;53.552;9.908;2023-01-28T02:28:54;1.00;99.90
13684;DHT22;6914;53.552;9.908;2023-01-28T02:31:29;1.00;99.90
13684;DHT22;6914;53.552;9.908;2023-01-28T02:34:06;1.00;99.90
13684;DHT22;6914;53.552;9.908;2023-01-28T02:36:40;0.90;99.90
13684;DHT22;6914;53.552;9.908;2023-01-28T02:39:13;1.10;99.90
13684;DHT22;6914;53.552;9.908;2023-01-28T02:41:47;0.90;99.90
13684;DHT22;6914;53.552;9.908;2023-01-28T02:44:17;0.90;99.90
13684;DHT22;6914;53.552;9.908;2023-01-28T02:46:43;0.90;99.90
13684;DHT22;6914;53.552;9.908;2023-01-28T02:49:30;0.90;99.90
13684;DHT22;6914;53.552;9.908;2023-01-28T02:52:12;1.70;99.90
13684;DHT22;6914;53.552;9.908;2023-01-28T02:54:47;0.80;99.90
13684;DHT22;6914;53.552;9.908;2023-01-28T02:57:32;1.00;99.90
13684;DHT22;6914;53.552;9.908;2023-01-28T03:00:09;0.80;99.90
13684;DHT22;6914;53.552;9.908;2023-01-28T03:02:43;1.00;99.90
13684;DHT22;6914;53.552;9.908;2023-01-28T03:05:16;1.20;99.90
13684;DHT22;6914;53.552;9.908;2023-01-28T03:07:47;1.00;99.90
13684;DHT22;6914;53.552;9.908;2023-01-28T03:10:17;0.90;99.90
13684;DHT22;6914;53.552;9.908;2023-01-28T03:12:46;1.10;99.90
13684;DHT22;6914;53.552;9.908;2023-01-28T03:15:36;0.80;99.90
13684;DHT22;6914;53.552;9.908;2023-01-28T03:18:24;1.10;99.90
13684;DHT22;6914;53.552;9.908;2023-01-28T03:21:14;1.10;99.90
13684;DHT22;6914;53.552;9.908;2023-01-28T03:24:06;1.00;99.90
13684;DHT22;6914;53.552;9.908;2023-01-28T03:26:57;1.00;99.90
13684;DHT22;6914;53.552;9.908;2023-01-28T03:29:46;0.90;99.90
13684;DHT22;6914;53.552;9.908;2023-01-28T03:32:33;1.00;99.90
13684;DHT22;6914;53.552;9.908;2023-01-28T03:35:21;0.70;99.90
13684;DHT22;6914;53.552;9.908;2023-01-28T03:38:07;1.10;99.90
13684;DHT22;6914;53.552;9.908;2023-01-28T03:40:49;0.70;99.90
13684;DHT22;6914;53.552;9.908;2023-01-28T03:43:17;0.90;99.90
13684;DHT22;6914;53.552;9.908;2023-01-28T03:45:43;0.90;99.90
13684;DHT22;6914;53.552;9.908;2023-01-28T03:48:12;0.90;99.90
13684;DHT22;6914;53.552;9.908;2023-01-28T03:50:39;1.00;99.90
13684;DHT22;6914;53.552;9.908;2023-01-28T03:53:06;1.30;99.90
13684;DHT22;6914;53.552;9.908;2023-01-28T03:55:40;0.80;99.90
13684;DHT22;6914;53.552;9.908;2023-01-28T03:58:07;1.10;99.90
13684;DHT22;6914;53.552;9.908;2023-01-28T04:00:34;0.80;99.90
13684;DHT22;6914;53.552;9.908;2023-01-28T04:03:06;1.30;99.90
13684;DHT22;6914;53.552;9.908;2023-01-28T04:05:42;0.80;99.90
13684;DHT22;6914;53.552;9.908;2023-01-28T04:08:08;1.50;99.90
13684;DHT22;6914;53.552;9.908;2023-01-28T04:10:36;0.70;99.90
13684;DHT22;6914;53.552;9.908;2023-01-28T04:13:06;0.70;99.90
13684;DHT22;6914;53.552;9.908;2023-01-28T04:15:33;0.60;99.90
13684;DHT22;6914;53.552;9.908;2023-01-28T04:18:01;0.40;99.90
13684;DHT22;6914;53.552;9.908;2023-01-28T04:20:28;1.20;99.90
13684;DHT22;6914;53.552;9.908;2023-01-28T04:22:56;1.70;99.90
13684;DHT22;6914;53.552;9.908;2023-01-28T04:25:26;0.30;99.90
13684;DHT22;6914;53.552;9.908;2023-01-28T04:27:53;0.40;99.90
13684;DHT22;6914;53.552;9.908;2023-01-28T04:30:19;0.30;99.90
13684;DHT22;6914;53.552;9.908;2023-01-28T04:32:46;1.10;99.90
13684;DHT22;6914;53.552;9.908;2023-01-28T04:35:15;0.30;99.90
13684;DHT22;6914;53.552;9.908;2023-01-28T04:37:42;0.20;99.90
13684;DHT22;6914;53.552;9.908;2023-01-28T04:40:12;0.20;99.90
13684;DHT22;6914;53.552;9.908;2023-01-28T04:42:38;0.30;99.90
13684;DHT22;6914;53.552;9.908;2023-01-28T04:45:06;0.30;99.90
13684;DHT22;6914;53.552;9.908;2023-01-28T04:47:33;0.20;99.90
13684;DHT22;6914;53.552;9.908;2023-01-28T04:50:01;0.00;99.90
13684;DHT22;6914;53.552;9.908;2023-01-28T04:52:28;-0.10;99.90
13684;DHT22;6914;53.552;9.908;2023-01-28T04:54:55;-0.10;99.90
13684;DHT22;6914;53.552;9.908;2023-01-28T04:57:23;-0.20;99.90
13684;DHT22;6914;53.552;9.908;2023-01-28T04:59:50;0.30;99.90
13684;DHT22;6914;53.552;9.908;2023-01-28T05:02:16;-0.10;99.90
13684;DHT22;6914;53.552;9.908;2023-01-28T05:04:43;-1.50;99.90
13684;DHT22;6914;53.552;9.908;2023-01-28T05:07:10;-0.10;99.90
13684;DHT22;6914;53.552;9.908;2023-01-28T05:09:38;-0.10;99.90
13684;DHT22;6914;53.552;9.908;2023-01-28T05:12:05;-0.10;99.90
13684;DHT22;6914;53.552;9.908;2023-01-28T05:14:33;-0.20;99.90
13684;DHT22;6914;53.552;9.908;2023-01-28T05:17:00;0.00;99.90
13684;DHT22;6914;53.552;9.908;2023-01-28T05:19:27;-0.20;99.90
13684;DHT22;6914;53.552;9.908;2023-01-28T05:21:54;-0.40;99.90
13684;DHT22;6914;53.552;9.908;2023-01-28T05:24:21;-0.10;99.90
13684;DHT22;6914;53.552;9.908;2023-01-28T05:26:48;-0.30;99.90
13684;DHT22;6914;53.552;9.908;2023-01-28T05:29:15;-0.60;99.90
13684;DHT22;6914;53.552;9.908;2023-01-28T05:31:43;1.20;99.90
13684;DHT22;6914;53.552;9.908;2023-01-28T05:34:09;0.00;99.90
13684;DHT22;6914;53.552;9.908;2023-01-28T05:36:36;-0.80;99.90
13684;DHT22;6914;53.552;9.908;2023-01-28T05:39:05;-0.60;99.90
13684;DHT22;6914;53.552;9.908;2023-01-28T05:41:32;-0.40;99.90
13684;DHT22;6914;53.552;9.908;2023-01-28T05:44:00;0.70;99.90
13684;DHT22;6914;53.552;9.908;2023-01-28T05:46:27;-1.00;99.90
13684;DHT22;6914;53.552;9.908;2023-01-28T05:48:55;-1.00;99.90
13684;DHT22;6914;53.552;9.908;2023-01-28T05:51:22;0.20;99.90
13684;DHT22;6914;53.552;9.908;2023-01-28T05:53:49;-1.20;99.90
13684;DHT22;6914;53.552;9.908;2023-01-28T05:56:15;-1.20;99.90
13684;DHT22;6914;53.552;9.908;2023-01-28T05:58:42;-1.30;99.90
13684;DHT22;6914;53.552;9.908;2023-01-28T06:01:09;-1.30;99.90
13684;DHT22;6914;53.552;9.908;2023-01-28T06:03:36;-1.00;99.90
13684;DHT22;6914;53.552;9.908;2023-01-28T06:06:06;-1.30;99.90
13684;DHT22;6914;53.552;9.908;2023-01-28T06:08:33;-1.40;99.90
13684;DHT22;6914;53.552;9.908;2023-01-28T06:11:01;-0.50;99.90
13684;DHT22;6914;53.552;9.908;2023-01-28T06:13:32;-2.10;99.90
13684;DHT22;6914;53.552;9.908;2023-01-28T06:15:59;-0.90;99.90
13684;DHT22;6914;53.552;9.908;2023-01-28T06:18:26;-2.60;99.90
13684;DHT22;6914;53.552;9.908;2023-01-28T06:20:53;-1.60;99.90
13684;DHT22;6914;53.552;9.908;2023-01-28T06:23:21;-1.00;99.90
13684;DHT22;6914;53.552;9.908;2023-01-28T06:25:52;-1.20;99.90
13684;DHT22;6914;53.552;9.908;2023-01-28T06:28:19;-1.50;99.90
13684;DHT22;6914;53.552;9.908;2023-01-28T06:30:47;-1.20;99.90
13684;DHT22;6914;53.552;9.908;2023-01-28T06:33:14;-1.20;99.90
13684;DHT22;6914;53.552;9.908;2023-01-28T06:35:41;-1.10;99.90
13684;DHT22;6914;53.552;9.908;2023-01-28T06:38:08;-0.90;99.90
13684;DHT22;6914;53.552;9.908;2023-01-28T06:40:37;-1.00;99.90
13684;DHT22;6914;53.552;9.908;2023-01-28T06:43:05;-1.00;99.90
13684;DHT22;6914;53.552;9.908;2023-01-28T06:45:32;-1.10;99.90
13684;DHT22;6914;53.552;9.908;2023-01-28T06:47:59;-1.10;99.90
13684;DHT22;6914;53.552;9.908;2023-01-28T06:50:26;-1.00;99.90
13684;DHT22;6914;53.552;9.908;2023-01-28T06:52:53;-1.10;99.90
13684;DHT22;6914;53.552;9.908;2023-01-28T06:55:20;-1.20;99.90
13684;DHT22;6914;53.552;9.908;2023-01-28T06:57:48;-2.70;99.90
13684;DHT22;6914;53.552;9.908;2023-01-28T07:00:15;-1.20;99.90
13684;DHT22;6914;53.552;9.908;2023-01-28T07:02:42;-1.20;99.90
13684;DHT22;6914;53.552;9.908;2023-01-28T07:05:10;-1.30;99.90
13684;DHT22;6914;53.552;9.908;2023-01-28T07:07:37;-1.20;99.90
13684;DHT22;6914;53.552;9.908;2023-01-28T07:10:08;-1.30;99.90
13684;DHT22;6914;53.552;9.908;2023-01-28T07:12:35;-1.30;99.90
13684;DHT22;6914;53.552;9.908;2023-01-28T07:15:06;-1.30;99.90
13684;DHT22;6914;53.552;9.908;2023-01-28T07:17:33;-1.30;99.90
13684;DHT22;6914;53.552;9.908;2023-01-28T07:19:59;-1.40;99.90
13684;DHT22;6914;53.552;9.908;2023-01-28T07:22:26;-1.60;99.90
13684;DHT22;6914;53.552;9.908;2023-01-28T07:24:53;0.00;99.90
13684;DHT22;6914;53.552;9.908;2023-01-28T07:27:21;-1.40;99.90
13684;DHT22;6914;53.552;9.908;2023-01-28T07:29:48;-1.50;99.90
13684;DHT22;6914;53.552;9.908;2023-01-28T07:32:16;-1.60;99.90
13684;DHT22;6914;53.552;9.908;2023-01-28T07:34:42;-1.70;99.90
13684;DHT22;6914;53.552;9.908;2023-01-28T07:37:09;-1.60;99.90
13684;DHT22;6914;53.552;9.908;2023-01-28T07:39:36;-1.50;99.90
13684;DHT22;6914;53.552;9.908;2023-01-28T07:42:06;-1.40;99.90
13684;DHT22;6914;53.552;9.908;2023-01-28T07:44:34;-1.50;99.90
13684;DHT22;6914;53.552;9.908;2023-01-28T07:47:02;-1.50;99.90
13684;DHT22;6914;53.552;9.908;2023-01-28T07:49:33;-1.20;99.90
13684;DHT22;6914;53.552;9.908;2023-01-28T07:52:07;-1.30;99.90
13684;DHT22;6914;53.552;9.908;2023-01-28T07:54:34;-1.30;99.90
13684;DHT22;6914;53.552;9.908;2023-01-28T07:57:01;-1.20;99.90
13684;DHT22;6914;53.552;9.908;2023-01-28T07:59:31;-1.50;99.90
13684;DHT22;6914;53.552;9.908;2023-01-28T08:01:57;-1.00;99.90
13684;DHT22;6914;53.552;9.908;2023-01-28T08:04:25;-1.30;99.90
13684;DHT22;6914;53.552;9.908;2023-01-28T08:06:54;-1.50;99.90
13684;DHT22;6914;53.552;9.908;2023-01-28T08:09:21;-1.30;99.90
13684;DHT22;6914;53.552;9.908;2023-01-28T08:11:48;-1.30;99.90
13684;DHT22;6914;53.552;9.908;2023-01-28T08:14:15;-1.40;99.90
13684;DHT22;6914;53.552;9.908;2023-01-28T08:16:41;-1.80;99.90
13684;DHT22;6914;53.552;9.908;2023-01-28T08:19:08;-1.30;99.90
13684;DHT22;6914;53.552;9.908;2023-01-28T08:21:35;-1.10;99.90
13684;DHT22;6914;53.552;9.908;2023-01-28T08:24:07;-1.20;99.90
13684;DHT22;6914;53.552;9.908;2023-01-28T08:26:33;-1.20;99.90
13684;DHT22;6914;53.552;9.908;2023-01-28T08:29:00;-1.20;99.90
13684;DHT22;6914;53.552;9.908;2023-01-28T08:31:31;-1.00;99.90
13684;DHT22;6914;53.552;9.908;2023-01-28T08:33:57;-1.10;99.90
13684;DHT22;6914;53.552;9.908;2023-01-28T08:36:24;-1.10;99.90
13684;DHT22;6914;53.552;9.908;2023-01-28T08:38:51;-0.80;99.90
13684;DHT22;6914;53.552;9.908;2023-01-28T08:41:21;-0.80;99.90
13684;DHT22;6914;53.552;9.908;2023-01-28T08:43:48;-0.80;99.90
13684;DHT22;6914;53.552;9.908;2023-01-28T08:46:15;-0.50;99.90
13684;DHT22;6914;53.552;9.908;2023-01-28T08:48:42;-0.60;99.90
13684;DHT22;6914;53.552;9.908;2023-01-28T08:51:08;-0.50;99.90
13684;DHT22;6914;53.552;9.908;2023-01-28T08:53:35;-0.40;99.90
13684;DHT22;6914;53.552;9.908;2023-01-28T08:56:02;-0.40;99.90
13684;DHT22;6914;53.552;9.908;2023-01-28T08:58:31;0.00;99.90
13684;DHT22;6914;53.552;9.908;2023-01-28T09:00:57;0.00;99.90
13684;DHT22;6914;53.552;9.908;2023-01-28T09:03:31;0.40;99.90
13684;DHT22;6914;53.552;9.908;2023-01-28T09:06:00;0.50;99.90
13684;DHT22;6914;53.552;9.908;2023-01-28T09:08:27;0.80;99.90
13684;DHT22;6914;53.552;9.908;2023-01-28T09:10:55;1.10;99.90
13684;DHT22;6914;53.552;9.908;2023-01-28T09:13:22;2.60;99.90
13684;DHT22;6914;53.552;9.908;2023-01-28T09:15:51;1.90;99.90
13684;DHT22;6914;53.552;9.908;2023-01-28T09:18:18;2.20;99.90
13684;DHT22;6914;53.552;9.908;2023-01-28T09:20:45;2.70;99.90
13684;DHT22;6914;53.552;9.908;2023-01-28T09:23:12;3.40;99.90
13684;DHT22;6914;53.552;9.908;2023-01-28T09:25:39;2.80;99.90
13684;DHT22;6914;53.552;9.908;2023-01-28T09:28:10;4.80;99.90
13684;DHT22;6914;53.552;9.908;2023-01-28T09:30:37;4.10;99.90
13684;DHT22;6914;53.552;9.908;2023-01-28T09:33:12;4.30;99.90
13684;DHT22;6914;53.552;9.908;2023-01-28T09:35:42;4.40;99.90
13684;DHT22;6914;53.552;9.908;2023-01-28T09:38:09;4.40;99.90
13684;DHT22;6914;53.552;9.908;2023-01-28T09:40:38;4.60;99.90
13684;DHT22;6914;53.552;9.908;2023-01-28T09:45:58;5.00;99.90
13684;DHT22;6914;53.552;9.908;2023-01-28T09:48:30;5.00;99.90
13684;DHT22;6914;53.552;9.908;2023-01-28T09:50:59;4.50;99.90
13684;DHT22;6914;53.552;9.908;2023-01-28T09:53:29;4.00;99.90
13684;DHT22;6914;53.552;9.908;2023-01-28T09:55:59;4.10;99.90
13684;DHT22;6914;53.552;9.908;2023-01-28T09:58:26;2.80;99.90
13684;DHT22;6914;53.552;9.908;2023-01-28T10:00:58;4.90;99.90
13684;DHT22;6914;53.552;9.908;2023-01-28T10:03:42;5.50;99.90
13684;DHT22;6914;53.552;9.908;2023-01-28T10:06:25;6.40;97.90
13684;DHT22;6914;53.552;9.908;2023-01-28T10:09:12;6.70;93.70
13684;DHT22;6914;53.552;9.908;2023-01-28T10:11:53;6.60;91.90
13684;DHT22;6914;53.552;9.908;2023-01-28T10:14:31;6.40;87.10
13684;DHT22;6914;53.552;9.908;2023-01-28T10:17:08;6.50;86.80
13684;DHT22;6914;53.552;9.908;2023-01-28T10:19:41;6.70;83.80
13684;DHT22;6914;53.552;9.908;2023-01-28T10:22:17;7.40;80.70
13684;DHT22;6914;53.552;9.908;2023-01-28T10:24:47;6.90;90.50
13684;DHT22;6914;53.552;9.908;2023-01-28T10:27:20;6.80;82.90
13684;DHT22;6914;53.552;9.908;2023-01-28T10:29:48;7.30;85.00
13684;DHT22;6914;53.552;9.908;2023-01-28T10:32:22;7.70;76.80
13684;DHT22;6914;53.552;9.908;2023-01-28T10:34:53;7.00;74.10
13684;DHT22;6914;53.552;9.908;2023-01-28T10:37:20;6.30;89.40
13684;DHT22;6914;53.552;9.908;2023-01-28T10:39:47;6.30;91.50
13684;DHT22;6914;53.552;9.908;2023-01-28T10:42:24;5.70;97.00
13684;DHT22;6914;53.552;9.908;2023-01-28T10:44:54;5.50;99.90
13684;DHT22;6914;53.552;9.908;2023-01-28T10:47:28;4.80;99.90
13684;DHT22;6914;53.552;9.908;2023-01-28T10:49:58;4.20;99.90
13684;DHT22;6914;53.552;9.908;2023-01-28T10:52:25;4.10;99.90
13684;DHT22;6914;53.552;9.908;2023-01-28T10:54:59;4.10;99.90
13684;DHT22;6914;53.552;9.908;2023-01-28T10:57:26;4.10;99.90
13684;DHT22;6914;53.552;9.908;2023-01-28T10:59:53;4.10;99.90
13684;DHT22;6914;53.552;9.908;2023-01-28T11:02:31;3.60;99.90
13684;DHT22;6914;53.552;9.908;2023-01-28T11:05:06;3.30;99.90
13684;DHT22;6914;53.552;9.908;2023-01-28T11:07:33;3.30;99.90
13684;DHT22;6914;53.552;9.908;2023-01-28T11:10:01;3.50;99.90
13684;DHT22;6914;53.552;9.908;2023-01-28T11:12:29;3.70;99.90
13684;DHT22;6914;53.552;9.908;2023-01-28T11:14:58;3.70;99.90
13684;DHT22;6914;53.552;9.908;2023-01-28T11:17:28;3.70;99.90
13684;DHT22;6914;53.552;9.908;2023-01-28T11:19:58;3.80;99.90
13684;DHT22;6914;53.552;9.908;2023-01-28T11:22:31;3.50;99.90
13684;DHT22;6914;53.552;9.908;2023-01-28T11:24:59;3.60;99.90
13684;DHT22;6914;53.552;9.908;2023-01-28T11:27:28;4.20;99.90
13684;DHT22;6914;53.552;9.908;2023-01-28T11:29:57;5.10;99.90
13684;DHT22;6914;53.552;9.908;2023-01-28T11:32:27;6.30;99.90
13684;DHT22;6914;53.552;9.908;2023-01-28T11:34:55;6.30;99.90
13684;DHT22;6914;53.552;9.908;2023-01-28T11:37:25;6.30;97.90
13684;DHT22;6914;53.552;9.908;2023-01-28T11:40:13;6.10;99.40
13684;DHT22;6914;53.552;9.908;2023-01-28T11:42:41;5.70;99.90
13684;DHT22;6914;53.552;9.908;2023-01-28T11:45:15;5.20;99.90
13684;DHT22;6914;53.552;9.908;2023-01-28T11:47:55;4.90;99.90
13684;DHT22;6914;53.552;9.908;2023-01-28T11:50:33;5.30;99.90
13684;DHT22;6914;53.552;9.908;2023-01-28T11:56:24;6.00;99.90
13684;DHT22;6914;53.552;9.908;2023-01-28T11:59:03;6.00;99.90
13684;DHT22;6914;53.552;9.908;2023-01-28T12:01:40;5.90;99.90
13684;DHT22;6914;53.552;9.908;2023-01-28T12:04:22;6.00;99.90
13684;DHT22;6914;53.552;9.908;2023-01-28T12:07:15;6.40;99.90
13684;DHT22;6914;53.552;9.908;2023-01-28T12:09:52;6.30;98.10
13684;DHT22;6914;53.552;9.908;2023-01-28T12:12:50;7.10;91.60
13684;DHT22;6914;53.552;9.908;2023-01-28T12:15:53;7.50;81.90
13684;DHT22;6914;53.552;9.908;2023-01-28T12:18:42;7.30;82.70
13684;DHT22;6914;53.552;9.908;2023-01-28T12:21:15;7.80;79.70
13684;DHT22;6914;53.552;9.908;2023-01-28T12:24:00;8.60;79.10
13684;DHT22;6914;53.552;9.908;2023-01-28T12:26:34;8.20;78.40
13684;DHT22;6914;53.552;9.908;2023-01-28T12:29:16;8.10;75.30
13684;DHT22;6914;53.552;9.908;2023-01-28T12:32:12;9.00;76.70
13684;DHT22;6914;53.552;9.908;2023-01-28T12:35:06;7.90;76.10
13684;DHT22;6914;53.552;9.908;2023-01-28T12:37:58;7.60;77.60
13684;DHT22;6914;53.552;9.908;2023-01-28T12:40:41;7.40;82.60
13684;DHT22;6914;53.552;9.908;2023-01-28T12:43:16;8.20;96.40
13684;DHT22;6914;53.552;9.908;2023-01-28T12:45:48;6.80;99.90
13684;DHT22;6914;53.552;9.908;2023-01-28T12:48:22;7.30;99.90
13684;DHT22;6914;53.552;9.908;2023-01-28T12:50:54;7.40;91.60
13684;DHT22;6914;53.552;9.908;2023-01-28T12:53:27;6.50;99.10
13684;DHT22;6914;53.552;9.908;2023-01-28T12:55:59;5.60;99.90
13684;DHT22;6914;53.552;9.908;2023-01-28T12:58:36;5.40;99.90
13684;DHT22;6914;53.552;9.908;2023-01-28T13:01:07;5.30;99.90
13684;DHT22;6914;53.552;9.908;2023-01-28T13:03:39;5.10;99.90
13684;DHT22;6914;53.552;9.908;2023-01-28T13:06:11;5.10;99.90
13684;DHT22;6914;53.552;9.908;2023-01-28T13:08:39;5.30;99.90
13684;DHT22;6914;53.552;9.908;2023-01-28T13:11:13;5.00;99.90
13684;DHT22;6914;53.552;9.908;2023-01-28T13:13:44;4.60;99.90
13684;DHT22;6914;53.552;9.908;2023-01-28T13:16:15;4.20;99.90
13684;DHT22;6914;53.552;9.908;2023-01-28T13:18:44;5.50;99.90
13684;DHT22;6914;53.552;9.908;2023-01-28T13:21:27;3.90;99.90
13684;DHT22;6914;53.552;9.908;2023-01-28T13:24:17;3.80;99.90
13684;DHT22;6914;53.552;9.908;2023-01-28T13:26:47;3.90;99.90
13684;DHT22;6914;53.552;9.908;2023-01-28T13:29:26;4.40;99.90
13684;DHT22;6914;53.552;9.908;2023-01-28T13:31:56;4.90;99.90
13684;DHT22;6914;53.552;9.908;2023-01-28T13:34:30;5.50;99.90
13684;DHT22;6914;53.552;9.908;2023-01-28T13:37:00;5.10;99.90
13684;DHT22;6914;53.552;9.908;2023-01-28T13:39:29;5.20;99.90
13684;DHT22;6914;53.552;9.908;2023-01-28T13:42:09;4.50;99.90
13684;DHT22;6914;53.552;9.908;2023-01-28T13:44:37;5.00;99.90
13684;DHT22;6914;53.552;9.908;2023-01-28T13:47:22;5.00;99.90
13684;DHT22;6914;53.552;9.908;2023-01-28T13:49:55;4.80;99.90
13684;DHT22;6914;53.552;9.908;2023-01-28T13:52:27;4.70;99.90
13684;DHT22;6914;53.552;9.908;2023-01-28T13:55:01;4.50;99.90
13684;DHT22;6914;53.552;9.908;2023-01-28T13:57:46;4.60;99.90
13684;DHT22;6914;53.552;9.908;2023-01-28T14:00:24;4.30;99.90
13684;DHT22;6914;53.552;9.908;2023-01-28T14:03:27;4.40;99.90
13684;DHT22;6914;53.552;9.908;2023-01-28T14:06:13;4.10;99.90
13684;DHT22;6914;53.552;9.908;2023-01-28T14:08:57;3.90;99.90
13684;DHT22;6914;53.552;9.908;2023-01-28T14:14:34;3.60;99.90
13684;DHT22;6914;53.552;9.908;2023-01-28T14:17:15;4.40;99.90
13684;DHT22;6914;53.552;9.908;2023-01-28T14:19:44;3.30;99.90
13684;DHT22;6914;53.552;9.908;2023-01-28T14:22:17;3.30;99.90
13684;DHT22;6914;53.552;9.908;2023-01-28T14:24:45;3.40;99.90
13684;DHT22;6914;53.552;9.908;2023-01-28T14:27:19;3.30;99.90
13684;DHT22;6914;53.552;9.908;2023-01-28T14:29:58;3.20;99.90
13684;DHT22;6914;53.552;9.908;2023-01-28T14:32:30;3.40;99.90
13684;DHT22;6914;53.552;9.908;2023-01-28T14:35:04;3.30;99.90
13684;DHT22;6914;53.552;9.908;2023-01-28T14:37:32;3.00;99.90
13684;DHT22;6914;53.552;9.908;2023-01-28T14:40:00;2.90;99.90
13684;DHT22;6914;53.552;9.908;2023-01-28T14:42:30;3.00;99.90
13684;DHT22;6914;53.552;9.908;2023-01-28T14:45:13;3.10;99.90
13684;DHT22;6914;53.552;9.908;2023-01-28T14:48:00;3.00;99.90
13684;DHT22;6914;53.552;9.908;2023-01-28T14:50:49;3.00;99.90
13684;DHT22;6914;53.552;9.908;2023-01-28T14:53:40;2.70;99.90
13684;DHT22;6914;53.552;9.908;2023-01-28T14:56:22;2.90;99.90
13684;DHT22;6914;53.552;9.908;2023-01-28T14:58:53;2.90;99.90
13684;DHT22;6914;53.552;9.908;2023-01-28T15:01:25;2.80;99.90
13684;DHT22;6914;53.552;9.908;2023-01-28T15:03:53;2.70;99.90
13684;DHT22;6914;53.552;9.908;2023-01-28T15:06:23;2.70;99.90
13684;DHT22;6914;53.552;9.908;2023-01-28T15:08:50;2.60;99.90
13684;DHT22;6914;53.552;9.908;2023-01-28T15:11:20;2.70;99.90
13684;DHT22;6914;53.552;9.908;2023-01-28T15:13:50;2.70;99.90
13684;DHT22;6914;53.552;9.908;2023-01-28T15:16:22;4.10;99.90
13684;DHT22;6914;53.552;9.908;2023-01-28T15:18:50;2.60;99.90
13684;DHT22;6914;53.552;9.908;2023-01-28T15:21:23;2.80;99.90
13684;DHT22;6914;53.552;9.908;2023-01-28T15:23:52;2.60;99.90
13684;DHT22;6914;53.552;9.908;2023-01-28T15:26:22;2.70;99.90
13684;DHT22;6914;53.552;9.908;2023-01-28T15:28:51;2.60;99.90
13684;DHT22;6914;53.552;9.908;2023-01-28T15:31:21;2.70;99.90
13684;DHT22;6914;53.552;9.908;2023-01-28T15:33:56;2.60;99.90
13684;DHT22;6914;53.552;9.908;2023-01-28T15:36:25;2.50;99.90
13684;DHT22;6914;53.552;9.908;2023-01-28T15:38:53;2.50;99.90
13684;DHT22;6914;53.552;9.908;2023-01-28T15:41:22;2.30;99.90
13684;DHT22;6914;53.552;9.908;2023-01-28T15:43:51;2.10;99.90
13684;DHT22;6914;53.552;9.908;2023-01-28T15:46:19;2.20;99.90
13684;DHT22;6914;53.552;9.908;2023-01-28T15:48:51;1.60;99.90
13684;DHT22;6914;53.552;9.908;2023-01-28T15:51:25;2.30;99.90
13684;DHT22;6914;53.552;9.908;2023-01-28T15:53:56;2.10;99.90
13684;DHT22;6914;53.552;9.908;2023-01-28T15:56:26;2.10;99.90
13684;DHT22;6914;53.552;9.908;2023-01-28T15:58:54;2.00;99.90
13684;DHT22;6914;53.552;9.908;2023-01-28T16:01:22;3.60;99.90
13684;DHT22;6914;53.552;9.908;2023-01-28T16:04:00;2.10;99.90
13684;DHT22;6914;53.552;9.908;2023-01-28T16:06:35;2.00;99.90
13684;DHT22;6914;53.552;9.908;2023-01-28T16:09:04;1.90;99.90
13684;DHT22;6914;53.552;9.908;2023-01-28T16:11:34;2.10;99.90
13684;DHT22;6914;53.552;9.908;2023-01-28T16:14:01;2.00;99.90
13684;DHT22;6914;53.552;9.908;2023-01-28T16:16:31;2.00;99.90
13684;DHT22;6914;53.552;9.908;2023-01-28T16:18:59;2.20;99.90
13684;DHT22;6914;53.552;9.908;2023-01-28T16:21:28;2.20;99.90
13684;DHT22;6914;53.552;9.908;2023-01-28T16:24:02;2.20;99.90
13684;DHT22;6914;53.552;9.908;2023-01-28T16:26:30;2.10;99.90
13684;DHT22;6914;53.552;9.908;2023-01-28T16:29:00;2.30;99.90
13684;DHT22;6914;53.552;9.908;2023-01-28T16:31:43;2.10;99.90
13684;DHT22;6914;53.552;9.908;2023-01-28T16:34:15;2.00;99.90